createdAt,value
2022-11-14T00:01:35.178Z,7.92
2022-11-14T00:04:25.450Z,7.89
2022-11-14T00:07:14.766Z,7.90
2022-11-14T00:10:00.835Z,7.91
2022-11-14T00:12:47.636Z,7.91
2022-11-14T00:15:33.564Z,7.95
2022-11-14T00:18:19.489Z,7.95
2022-11-14T00:21:05.152Z,7.93
2022-11-14T00:23:51.507Z,7.91
2022-11-14T00:26:37.707Z,7.93
2022-11-14T00:29:24.395Z,7.96
2022-11-14T00:32:10.530Z,7.97
2022-11-14T00:34:56.885Z,7.97
2022-11-14T00:37:43.049Z,7.98
2022-11-14T00:40:30.309Z,8.00
2022-11-14T00:43:16.057Z,8.00
2022-11-14T00:46:02.493Z,7.94
2022-11-14T00:48:48.246Z,7.94
2022-11-14T00:51:34.863Z,8.01
2022-11-14T00:54:20.929Z,7.96
2022-11-14T00:57:07.346Z,7.96
2022-11-14T00:59:55.741Z,7.93
2022-11-14T01:02:42.432Z,7.87
2022-11-14T01:05:28.609Z,7.89
2022-11-14T01:08:16.063Z,7.80
2022-11-14T01:11:11.034Z,7.79
2022-11-14T01:13:57.058Z,7.80
2022-11-14T01:16:43.065Z,7.87
2022-11-14T01:19:28.842Z,7.85
2022-11-14T01:22:14.373Z,7.88
2022-11-14T01:25:00.694Z,7.88
2022-11-14T01:27:46.684Z,7.91
2022-11-14T01:30:32.970Z,7.90
2022-11-14T01:33:18.770Z,7.91
2022-11-14T01:36:06.464Z,7.89
2022-11-14T01:38:54.173Z,7.90
2022-11-14T01:41:40.406Z,7.89
2022-11-14T01:44:45.343Z,7.97
2022-11-14T01:47:32.981Z,7.91
2022-11-14T01:50:19.231Z,7.85
2022-11-14T01:53:05.605Z,7.87
2022-11-14T01:55:53.037Z,7.88
2022-11-14T01:58:42.876Z,7.90
2022-11-14T02:01:31.946Z,7.90
2022-11-14T02:04:27.180Z,7.87
2022-11-14T02:07:13.304Z,7.82
2022-11-14T02:10:00.272Z,7.85
2022-11-14T02:12:46.562Z,7.81
2022-11-14T02:15:33.398Z,7.86
2022-11-14T02:18:19.332Z,7.85
2022-11-14T02:21:05.619Z,7.85
2022-11-14T02:23:51.453Z,7.87
2022-11-14T02:26:38.645Z,7.83
2022-11-14T02:29:24.491Z,7.77
2022-11-14T02:32:11.200Z,7.78
2022-11-14T02:34:57.386Z,7.81
2022-11-14T02:37:43.897Z,7.78
2022-11-14T02:40:30.066Z,7.80
2022-11-14T02:43:16.299Z,7.84
2022-11-14T02:46:05.587Z,7.74
2022-11-14T02:48:51.956Z,7.73
2022-11-14T02:51:38.074Z,7.75
2022-11-14T02:54:24.583Z,7.78
2022-11-14T02:57:10.322Z,7.80
2022-11-14T02:59:56.779Z,7.79
2022-11-14T03:02:43.047Z,7.68
2022-11-14T03:05:28.918Z,7.66
2022-11-14T03:08:14.942Z,7.69
2022-11-14T03:11:05.756Z,7.75
2022-11-14T03:13:51.205Z,7.68
2022-11-14T03:16:37.075Z,7.63
2022-11-14T03:19:23.116Z,7.59
2022-11-14T03:22:09.339Z,7.65
2022-11-14T03:24:55.483Z,7.63
2022-11-14T03:27:41.921Z,7.65
2022-11-14T03:30:27.605Z,7.60
2022-11-14T03:33:13.952Z,7.50
2022-11-14T03:35:59.537Z,7.53
2022-11-14T03:38:45.718Z,7.55
2022-11-14T03:41:31.950Z,7.49
2022-11-14T03:44:18.375Z,7.47
2022-11-14T03:47:04.717Z,7.52
2022-11-14T03:49:51.267Z,7.49
2022-11-14T03:52:37.262Z,7.58
2022-11-14T03:55:23.500Z,7.58
2022-11-14T03:58:09.578Z,7.60
2022-11-14T04:00:56.337Z,7.59
2022-11-14T04:03:42.243Z,7.69
2022-11-14T04:06:28.166Z,7.69
2022-11-14T04:09:13.963Z,7.70
2022-11-14T04:12:00.321Z,7.71
2022-11-14T04:14:46.241Z,7.69
2022-11-14T04:17:37.043Z,7.72
2022-11-14T04:20:25.597Z,7.73
2022-11-14T04:23:11.874Z,7.78
2022-11-14T04:25:58.077Z,7.71
2022-11-14T04:28:44.822Z,7.64
2022-11-14T04:31:30.993Z,7.69
2022-11-14T04:34:17.162Z,7.68
2022-11-14T04:37:03.314Z,7.75
2022-11-14T04:39:49.593Z,7.71
2022-11-14T04:42:35.395Z,7.71
2022-11-14T04:45:21.382Z,7.73
2022-11-14T04:48:07.382Z,7.69
2022-11-14T04:50:53.353Z,7.68
2022-11-14T04:53:39.603Z,7.73
2022-11-14T04:56:26.025Z,7.68
2022-11-14T04:59:13.081Z,7.68
2022-11-14T05:02:01.040Z,7.66
2022-11-14T05:04:48.502Z,7.74
2022-11-14T05:07:34.859Z,7.60
2022-11-14T05:10:21.098Z,7.59
2022-11-14T05:13:06.813Z,7.48
2022-11-14T05:15:52.890Z,7.51
2022-11-14T05:18:44.304Z,7.49
2022-11-14T05:21:32.934Z,7.47
2022-11-14T05:24:20.089Z,7.36
2022-11-14T05:27:06.076Z,7.37
2022-11-14T05:29:52.747Z,7.38
2022-11-14T05:32:38.716Z,7.36
2022-11-14T05:35:25.037Z,7.43
2022-11-14T05:38:11.140Z,7.32
2022-11-14T05:40:57.472Z,7.34
2022-11-14T05:43:44.204Z,7.34
2022-11-14T05:46:30.197Z,7.31
2022-11-14T05:49:20.650Z,7.37
2022-11-14T05:52:08.081Z,7.40
2022-11-14T05:54:54.199Z,7.38
2022-11-14T05:57:40.435Z,7.27
2022-11-14T06:00:27.886Z,7.37
2022-11-14T06:03:15.219Z,7.30
2022-11-14T06:06:02.901Z,7.29
2022-11-14T06:08:49.473Z,7.26
2022-11-14T06:11:35.509Z,7.24
2022-11-14T06:14:21.563Z,7.36
2022-11-14T06:17:07.734Z,7.28
2022-11-14T06:19:53.726Z,7.33
2022-11-14T06:22:41.010Z,7.38
2022-11-14T06:25:27.173Z,7.39
2022-11-14T06:28:13.161Z,7.44
2022-11-14T06:31:05.648Z,7.43
2022-11-14T06:33:51.833Z,7.40
2022-11-14T06:36:38.076Z,7.39
2022-11-14T06:39:24.450Z,7.52
2022-11-14T06:42:10.488Z,7.41
2022-11-14T06:44:56.028Z,7.50
2022-11-14T06:47:42.586Z,7.41
2022-11-14T06:50:28.603Z,7.36
2022-11-14T06:53:14.951Z,7.50
2022-11-14T06:56:03.315Z,7.42
2022-11-14T06:58:50.262Z,7.46
2022-11-14T07:01:36.597Z,7.48
2022-11-14T07:04:23.302Z,7.44
2022-11-14T07:07:09.240Z,7.49
2022-11-14T07:09:56.829Z,7.47
2022-11-14T07:12:42.881Z,7.50
2022-11-14T07:15:29.165Z,7.57
2022-11-14T07:18:15.197Z,7.53
2022-11-14T07:21:05.034Z,7.56
2022-11-14T07:23:51.281Z,7.56
2022-11-14T07:26:38.047Z,7.64
2022-11-14T07:29:24.043Z,7.58
2022-11-14T07:32:10.119Z,7.60
2022-11-14T07:35:01.723Z,7.58
2022-11-14T07:37:48.612Z,7.53
2022-11-14T07:40:34.612Z,7.47
2022-11-14T07:43:20.925Z,7.58
2022-11-14T07:46:18.227Z,7.57
2022-11-14T07:49:04.330Z,7.60
2022-11-14T07:51:50.418Z,7.48
2022-11-14T07:54:36.425Z,7.54
2022-11-14T07:57:22.453Z,7.58
2022-11-14T08:00:10.440Z,7.48
2022-11-14T08:02:56.287Z,7.46
2022-11-14T08:05:42.881Z,7.47
2022-11-14T08:08:29.254Z,7.42
2022-11-14T08:11:31.741Z,7.40
2022-11-14T08:14:20.430Z,7.42
2022-11-14T08:17:06.801Z,7.45
2022-11-14T08:19:53.471Z,7.50
2022-11-14T08:22:39.928Z,7.40
2022-11-14T08:25:26.007Z,7.47
2022-11-14T08:28:12.422Z,7.56
2022-11-14T08:31:02.532Z,7.53
2022-11-14T08:33:52.122Z,7.60
2022-11-14T08:36:38.401Z,7.70
2022-11-14T08:39:24.740Z,7.76
2022-11-14T08:42:10.776Z,7.68
2022-11-14T08:44:57.201Z,7.69
2022-11-14T08:47:43.073Z,7.70
2022-11-14T08:50:29.242Z,7.70
2022-11-14T08:53:15.519Z,7.74
2022-11-14T08:56:02.227Z,7.78
2022-11-14T08:58:48.327Z,7.79
2022-11-14T09:01:34.660Z,7.83
2022-11-14T09:04:20.917Z,7.74
2022-11-14T09:07:07.470Z,7.69
2022-11-14T09:09:53.575Z,7.65
2022-11-14T09:12:39.766Z,7.60
2022-11-14T09:15:25.911Z,7.51
2022-11-14T09:18:12.635Z,7.53
2022-11-14T09:21:06.861Z,7.47
2022-11-14T09:23:57.406Z,7.49
2022-11-14T09:26:46.217Z,7.49
2022-11-14T09:29:32.528Z,7.58
2022-11-14T09:32:18.777Z,7.54
2022-11-14T09:35:05.481Z,7.52
2022-11-14T09:37:59.789Z,7.54
2022-11-14T09:40:56.697Z,7.62
2022-11-14T09:44:01.746Z,7.62
2022-11-14T09:47:02.048Z,7.66
2022-11-14T09:49:50.225Z,7.73
2022-11-14T09:52:53.003Z,7.34
2022-11-14T09:55:39.352Z,7.59
2022-11-14T09:58:27.360Z,7.60
2022-11-14T10:01:33.310Z,7.55
2022-11-14T10:04:25.846Z,7.65
2022-11-14T10:08:02.655Z,7.71
2022-11-14T10:10:48.757Z,7.67
2022-11-14T10:13:48.868Z,7.68
2022-11-14T10:17:07.838Z,7.84
2022-11-14T10:20:17.306Z,7.77
2022-11-14T10:23:28.585Z,7.70
2022-11-14T10:26:18.076Z,7.59
2022-11-14T10:29:41.245Z,7.60
2022-11-14T10:33:05.845Z,7.62
2022-11-14T10:36:11.885Z,7.67
2022-11-14T10:39:23.780Z,7.86
2022-11-14T10:42:26.824Z,7.90
2022-11-14T10:45:28.563Z,7.88
2022-11-14T10:48:29.424Z,7.86
2022-11-14T10:51:35.720Z,7.72
2022-11-14T10:54:25.862Z,7.83
2022-11-14T10:57:20.245Z,7.79
2022-11-14T11:00:15.896Z,7.78
2022-11-14T11:03:01.898Z,7.83
2022-11-14T11:06:00.012Z,7.87
2022-11-14T11:09:04.347Z,7.81
2022-11-14T11:11:59.685Z,7.83
2022-11-14T11:14:47.279Z,7.85
2022-11-14T11:17:38.791Z,7.92
2022-11-14T11:20:36.356Z,7.81
2022-11-14T11:23:25.816Z,7.80
2022-11-14T11:26:19.685Z,7.77
2022-11-14T11:29:12.142Z,7.78
2022-11-14T11:31:58.957Z,7.79
2022-11-14T11:34:45.597Z,7.83
2022-11-14T11:37:34.504Z,7.78
2022-11-14T11:40:24.402Z,7.74
2022-11-14T11:43:53.952Z,7.67
2022-11-14T11:47:12.663Z,7.64
2022-11-14T11:49:59.701Z,7.57
2022-11-14T11:52:58.002Z,7.58
2022-11-14T11:55:51.307Z,7.68
2022-11-14T11:58:56.986Z,7.61
2022-11-14T12:01:42.954Z,7.60
2022-11-14T12:04:30.875Z,7.60
2022-11-14T12:07:22.706Z,7.58
2022-11-14T12:10:18.662Z,7.60
2022-11-14T12:13:29.816Z,7.60
2022-11-14T12:16:38.286Z,7.57
2022-11-14T12:19:30.590Z,7.57
2022-11-14T12:22:33.746Z,7.57
2022-11-14T12:26:11.131Z,7.59
2022-11-14T12:29:35.830Z,7.50
2022-11-14T12:32:34.348Z,7.52
2022-11-14T12:35:35.759Z,7.45
2022-11-14T12:38:22.281Z,7.52
2022-11-14T12:41:09.572Z,7.47
2022-11-14T12:44:19.210Z,7.48
2022-11-14T12:47:05.749Z,7.47
2022-11-14T12:49:55.022Z,7.51
2022-11-14T12:52:46.205Z,7.52
2022-11-14T12:55:32.002Z,7.48
2022-11-14T12:58:21.073Z,7.54
2022-11-14T13:01:44.500Z,7.50
2022-11-14T13:04:49.319Z,7.55
2022-11-14T13:07:53.805Z,7.61
2022-11-14T13:10:41.532Z,7.50
2022-11-14T13:13:46.481Z,7.44
2022-11-14T13:16:51.768Z,7.46
2022-11-14T13:20:04.949Z,7.45
2022-11-14T13:22:51.301Z,7.47
2022-11-14T13:25:37.399Z,7.43
2022-11-14T13:28:48.894Z,7.44
2022-11-14T13:31:45.181Z,7.40
2022-11-14T13:34:50.460Z,7.24
2022-11-14T13:38:03.036Z,7.16
2022-11-14T13:41:06.831Z,7.13
2022-11-14T13:44:11.215Z,7.19
2022-11-14T13:47:14.461Z,7.11
2022-11-14T13:50:07.012Z,7.17
2022-11-14T13:52:53.083Z,7.04
2022-11-14T13:55:44.973Z,7.04
2022-11-14T13:58:34.122Z,6.96
2022-11-14T14:01:43.695Z,6.95
2022-11-14T14:04:50.921Z,6.93
2022-11-14T14:07:42.585Z,6.99
2022-11-14T14:11:00.302Z,6.89
2022-11-14T14:14:06.306Z,6.87
2022-11-14T14:17:03.053Z,6.76
2022-11-14T14:20:13.730Z,6.81
2022-11-14T14:23:13.293Z,6.74
2022-11-14T14:26:15.320Z,6.70
2022-11-14T14:29:31.277Z,6.64
2022-11-14T14:32:19.140Z,6.65
2022-11-14T14:35:29.911Z,6.53
2022-11-14T14:38:29.645Z,6.53
2022-11-14T14:41:18.695Z,6.53
2022-11-14T14:44:05.025Z,6.50
2022-11-14T14:46:52.040Z,6.53
2022-11-14T14:49:38.707Z,6.47
2022-11-14T14:52:34.407Z,6.46
2022-11-14T14:55:27.452Z,6.58
2022-11-14T14:58:35.169Z,6.56
2022-11-14T15:01:33.550Z,6.58
2022-11-14T15:04:21.427Z,6.64
2022-11-14T15:07:19.350Z,6.57
2022-11-14T15:10:08.181Z,6.63
2022-11-14T15:12:54.483Z,6.59
2022-11-14T15:15:41.022Z,6.59
2022-11-14T15:18:30.149Z,6.71
2022-11-14T15:21:24.429Z,6.70
2022-11-14T15:24:24.717Z,6.72
2022-11-14T15:27:19.311Z,6.74
2022-11-14T15:30:07.856Z,6.70
2022-11-14T15:32:57.139Z,6.64
2022-11-14T15:35:43.089Z,6.55
2022-11-14T15:38:43.448Z,6.50
2022-11-14T15:41:31.406Z,6.52
2022-11-14T15:44:36.643Z,6.52
2022-11-14T15:47:26.521Z,6.56
2022-11-14T15:50:12.629Z,6.56
2022-11-14T15:53:07.416Z,6.47
2022-11-14T15:55:53.924Z,6.50
2022-11-14T15:58:43.037Z,6.45
2022-11-14T16:01:31.656Z,6.35
2022-11-14T16:04:20.814Z,6.37
2022-11-14T16:07:07.556Z,6.35
2022-11-14T16:09:54.315Z,6.39
2022-11-14T16:12:40.725Z,6.42
2022-11-14T16:15:26.801Z,6.39
2022-11-14T16:18:13.205Z,6.48
2022-11-14T16:20:59.845Z,6.41
2022-11-14T16:23:46.546Z,6.42
2022-11-14T16:26:33.133Z,6.37
2022-11-14T16:29:19.163Z,6.37
2022-11-14T16:32:05.361Z,6.42
2022-11-14T16:34:51.430Z,6.40
2022-11-14T16:37:37.618Z,6.34
2022-11-14T16:40:28.857Z,6.38
2022-11-14T16:43:15.208Z,6.34
2022-11-14T16:46:05.207Z,6.34
2022-11-14T16:48:51.543Z,6.36
2022-11-14T16:51:47.604Z,6.37
2022-11-14T16:54:34.887Z,6.35
2022-11-14T16:57:21.765Z,6.26
2022-11-14T17:00:10.958Z,6.38
2022-11-14T17:02:57.154Z,6.33
2022-11-14T17:05:48.834Z,6.37
2022-11-14T17:08:34.907Z,6.38
2022-11-14T17:11:21.338Z,6.40
2022-11-14T17:14:07.928Z,6.44
2022-11-14T17:16:54.207Z,6.49
2022-11-14T17:19:46.200Z,6.55
2022-11-14T17:22:31.919Z,6.49
2022-11-14T17:25:18.633Z,6.43
2022-11-14T17:28:05.795Z,6.50
2022-11-14T17:30:52.301Z,6.42
2022-11-14T17:33:38.814Z,6.46
2022-11-14T17:36:27.274Z,6.43
2022-11-14T17:39:13.478Z,6.37
2022-11-14T17:42:00.031Z,6.41
2022-11-14T17:44:45.576Z,6.46
2022-11-14T17:47:31.694Z,6.46
2022-11-14T17:50:17.672Z,6.42
2022-11-14T17:53:03.968Z,6.27
2022-11-14T17:55:57.636Z,6.32
2022-11-14T17:58:44.301Z,6.25
2022-11-14T18:01:31.706Z,6.28
2022-11-14T18:04:18.010Z,6.30
2022-11-14T18:07:04.202Z,6.20
2022-11-14T18:09:50.764Z,6.24
2022-11-14T18:12:36.713Z,6.12
2022-11-14T18:15:27.789Z,6.08
2022-11-14T18:18:14.203Z,6.10
2022-11-14T18:21:14.977Z,6.07
2022-11-14T18:24:01.072Z,6.02
2022-11-14T18:26:47.147Z,5.99
2022-11-14T18:29:32.945Z,5.93
2022-11-14T18:32:19.544Z,5.96
2022-11-14T18:35:06.200Z,5.98
2022-11-14T18:37:52.302Z,6.00
2022-11-14T18:40:38.216Z,6.04
2022-11-14T18:43:25.158Z,6.07
2022-11-14T18:46:17.617Z,6.14
2022-11-14T18:49:04.257Z,6.13
2022-11-14T18:51:50.339Z,6.11
2022-11-14T18:54:36.449Z,6.10
2022-11-14T18:57:22.623Z,6.04
2022-11-14T19:00:09.958Z,6.00
2022-11-14T19:02:55.935Z,6.06
2022-11-14T19:05:42.326Z,6.11
2022-11-14T19:08:28.398Z,6.06
2022-11-14T19:11:36.446Z,6.04
2022-11-14T19:14:22.547Z,5.99
2022-11-14T19:17:09.312Z,6.00
2022-11-14T19:19:55.248Z,6.03
2022-11-14T19:22:41.544Z,5.97
2022-11-14T19:25:27.528Z,5.91
2022-11-14T19:28:13.656Z,5.93
2022-11-14T19:31:04.365Z,5.96
2022-11-14T19:33:50.889Z,5.97
2022-11-14T19:39:43.453Z,5.86
2022-11-14T19:42:29.503Z,5.98
2022-11-14T19:45:15.618Z,5.96
2022-11-14T19:48:02.052Z,5.97
2022-11-14T19:50:48.352Z,5.94
2022-11-14T19:53:35.464Z,5.95
2022-11-14T19:56:23.338Z,6.11
2022-11-14T19:59:14.016Z,6.09
2022-11-14T20:02:01.186Z,6.06
2022-11-14T20:04:47.080Z,6.01
2022-11-14T20:07:35.555Z,6.02
2022-11-14T20:10:21.389Z,5.93
2022-11-14T20:13:07.616Z,5.88
2022-11-14T20:15:53.606Z,5.90
2022-11-14T20:18:41.152Z,5.91
2022-11-14T20:21:29.583Z,5.97
2022-11-14T20:24:21.693Z,5.92
2022-11-14T20:27:07.476Z,5.89
2022-11-14T20:29:54.018Z,5.95
2022-11-14T20:32:40.503Z,5.89
2022-11-14T20:35:26.652Z,5.91
2022-11-14T20:38:12.918Z,5.86
2022-11-14T20:41:00.713Z,5.93
2022-11-14T20:43:46.348Z,5.94
2022-11-14T20:46:32.850Z,5.91
2022-11-14T20:49:18.617Z,5.85
2022-11-14T20:52:05.790Z,5.84
2022-11-14T20:54:51.662Z,5.83
2022-11-14T20:57:37.992Z,5.83
2022-11-14T21:00:23.958Z,5.76
2022-11-14T21:03:10.620Z,5.86
2022-11-14T21:05:57.195Z,5.76
2022-11-14T21:08:43.902Z,5.78
2022-11-14T21:11:30.125Z,5.66
2022-11-14T21:14:16.705Z,5.69
2022-11-14T21:17:02.561Z,5.69
2022-11-14T21:19:49.363Z,5.76
2022-11-14T21:22:35.454Z,5.79
2022-11-14T21:25:21.720Z,5.76
2022-11-14T21:28:07.906Z,5.83
2022-11-14T21:30:54.377Z,5.75
2022-11-14T21:33:41.018Z,5.74
2022-11-14T21:36:45.947Z,5.73
2022-11-14T21:39:32.621Z,5.76
2022-11-14T21:42:19.046Z,5.85
2022-11-14T21:45:06.072Z,5.80
2022-11-14T21:47:52.379Z,5.81
2022-11-14T21:50:38.093Z,5.78
2022-11-14T21:53:24.645Z,5.72
2022-11-14T21:56:22.308Z,5.71
2022-11-14T21:59:16.143Z,5.73
2022-11-14T22:02:20.507Z,5.73
2022-11-14T22:05:07.414Z,5.78
2022-11-14T22:07:53.338Z,5.76
2022-11-14T22:10:39.876Z,5.79
2022-11-14T22:13:25.953Z,5.76
2022-11-14T22:16:16.271Z,5.78
2022-11-14T22:19:05.541Z,5.72
2022-11-14T22:21:53.240Z,5.66
2022-11-14T22:24:39.272Z,5.75
2022-11-14T22:27:26.503Z,5.67
2022-11-14T22:30:12.916Z,5.62
2022-11-14T22:33:00.513Z,5.61
2022-11-14T22:35:46.549Z,5.61
2022-11-14T22:38:34.574Z,5.56
2022-11-14T22:41:33.210Z,5.67
2022-11-14T22:44:20.018Z,5.70
2022-11-14T22:47:05.966Z,5.62
2022-11-14T22:49:52.241Z,5.62
2022-11-14T22:52:38.347Z,5.63
2022-11-14T22:55:24.495Z,5.63
2022-11-14T22:58:10.571Z,5.60
2022-11-14T23:00:56.665Z,5.58
2022-11-14T23:03:42.874Z,5.61
2022-11-14T23:06:30.801Z,5.58
2022-11-14T23:09:17.251Z,5.51
2022-11-14T23:12:03.621Z,5.52
2022-11-14T23:14:49.301Z,5.48
2022-11-14T23:17:35.622Z,5.42
2022-11-14T23:20:21.836Z,5.36
2022-11-14T23:23:08.257Z,5.39
2022-11-14T23:25:55.846Z,5.36
2022-11-14T23:28:42.736Z,5.36
2022-11-14T23:31:28.876Z,5.39
2022-11-14T23:34:15.226Z,5.40
2022-11-14T23:37:01.266Z,5.39
2022-11-14T23:39:47.605Z,5.31
2022-11-14T23:42:33.482Z,5.36
2022-11-14T23:45:19.904Z,5.26
2022-11-14T23:48:06.136Z,5.20
2022-11-14T23:50:54.294Z,5.18
2022-11-14T23:53:40.072Z,5.17
2022-11-14T23:56:26.380Z,5.24
2022-11-14T23:59:12.640Z,5.18
